Time;durP1;ratioP1;P1;durP2;ratioP2;P2;SDS_P1;SDS_P2;PMS_P1;PMS_P2;Temp;Humidity;BMP_temperature;BMP_pressure;BME280_temperature;BME280_humidity;BME280_pressure;Samples;Min_cycle;Max_cycle;Signal;HPM_P1;HPM_P2
2021/11/21 00:02:03;;;;;;;43.87;17.30;;;;;;;;;;5051471;28;20021;-87
2021/11/21 00:04:28;;;;;;;36.93;16.93;;;;;;;;;;5054740;28;20059;-87
2021/11/21 00:06:53;;;;;;;33.07;14.37;;;;;;;;;;5054720;28;20434;-86
2021/11/21 00:09:19;;;;;;;36.83;14.90;;;;;;;;;;5055677;28;20027;-87
2021/11/21 00:11:44;;;;;;;34.77;16.03;;;;;;;;;;5054692;28;20025;-87
2021/11/21 00:14:10;;;;;;;39.90;15.93;;;;;;;;;;5054400;28;20357;-87
2021/11/21 00:16:35;;;;;;;35.10;15.40;;;;;;;;;;5054660;28;20059;-87
2021/11/21 00:19:01;;;;;;;38.87;15.57;;;;;;;;;;5054404;28;20366;-87
2021/11/21 00:21:26;;;;;;;37.47;17.50;;;;;;;;;;5054511;28;20017;-87
2021/11/21 00:23:51;;;;;;;38.07;14.57;;;;;;;;;;5054507;28;20017;-87
2021/11/21 00:26:17;;;;;;;39.93;16.47;;;;;;;;;;5048931;28;20025;-87
2021/11/21 00:28:42;;;;;;;40.63;16.10;;;;;;;;;;5045097;28;20460;-88
2021/11/21 00:31:07;;;;;;;40.77;16.83;;;;;;;;;;5051306;28;20036;-86
2021/11/21 00:33:33;;;;;;;35.53;15.13;;;;;;;;;;5054117;28;20021;-87
2021/11/21 00:35:58;;;;;;;39.47;15.57;;;;;;;;;;5053872;28;20044;-87
2021/11/21 00:38:23;;;;;;;41.87;15.47;;;;;;;;;;5053901;28;20032;-87
2021/11/21 00:40:49;;;;;;;33.53;14.83;;;;;;;;;;5053990;28;20028;-87
2021/11/21 00:43:14;;;;;;;37.67;15.77;;;;;;;;;;5053776;28;20419;-87
2021/11/21 00:45:39;;;;;;;45.10;17.40;;;;;;;;;;5053777;28;20017;-87
2021/11/21 00:48:05;;;;;;;38.80;15.40;;;;;;;;;;5053555;28;20100;-87
2021/11/21 00:50:31;;;;;;;38.27;15.50;;;;;;;;;;5053748;28;20052;-87
2021/11/21 00:53:02;;;;;;;42.37;17.03;;;;;;;;;;5049653;28;20082;-86
2021/11/21 00:55:39;;;;;;;38.70;16.27;;;;;;;;;;5053346;28;20013;-87
2021/11/21 00:58:06;;;;;;;39.07;14.07;;;;;;;;;;5053529;28;20104;-87
2021/11/21 01:00:31;;;;;;;43.03;16.27;;;;;;;;;;5048300;28;20017;-87
2021/11/21 01:02:57;;;;;;;41.77;15.60;;;;;;;;;;5043210;28;20070;-87
2021/11/21 01:05:22;;;;;;;39.77;14.90;;;;;;;;;;5038082;28;20112;-87
2021/11/21 01:07:47;;;;;;;40.63;15.37;;;;;;;;;;5041075;28;20029;-87
2021/11/21 01:10:15;;;;;;;38.83;15.87;;;;;;;;;;5053778;28;20028;-87
2021/11/21 01:12:40;;;;;;;36.53;14.93;;;;;;;;;;5053528;28;20018;-86
2021/11/21 01:15:06;;;;;;;41.57;15.60;;;;;;;;;;5053424;28;20017;-87
2021/11/21 01:17:31;;;;;;;36.13;15.43;;;;;;;;;;5054459;28;20009;-87
2021/11/21 01:20:00;;;;;;;36.53;14.53;;;;;;;;;;5054607;28;20468;-87
2021/11/21 01:22:26;;;;;;;39.40;14.87;;;;;;;;;;5053197;28;20021;-87
2021/11/21 01:24:52;;;;;;;36.63;15.03;;;;;;;;;;5053290;28;20372;-87
2021/11/21 01:27:17;;;;;;;38.60;14.17;;;;;;;;;;5052795;28;20029;-87
2021/11/21 01:29:42;;;;;;;38.63;14.77;;;;;;;;;;5033218;28;20036;-87
2021/11/21 01:32:07;;;;;;;42.97;14.80;;;;;;;;;;5044841;28;20033;-87
2021/11/21 01:34:32;;;;;;;40.77;15.97;;;;;;;;;;5052983;28;20026;-87
2021/11/21 01:36:58;;;;;;;38.23;14.90;;;;;;;;;;5053049;28;20031;-87
2021/11/21 01:39:23;;;;;;;36.60;15.47;;;;;;;;;;5052890;28;20044;-87
2021/11/21 01:41:48;;;;;;;45.90;16.57;;;;;;;;;;5052888;28;20400;-87
2021/11/21 01:44:16;;;;;;;38.80;14.77;;;;;;;;;;5052895;28;20017;-86
2021/11/21 01:46:42;;;;;;;38.57;13.60;;;;;;;;;;5052679;28;20020;-87
2021/11/21 01:49:08;;;;;;;36.07;15.17;;;;;;;;;;5052728;28;20032;-87
2021/11/21 01:51:33;;;;;;;36.50;13.93;;;;;;;;;;5052668;28;20016;-87
2021/11/21 01:53:59;;;;;;;43.17;15.23;;;;;;;;;;5052501;28;20013;-87
2021/11/21 01:56:26;;;;;;;37.03;14.43;;;;;;;;;;5047803;28;20044;-87
2021/11/21 01:58:52;;;;;;;40.50;16.23;;;;;;;;;;5052420;28;20013;-87
2021/11/21 02:01:17;;;;;;;42.03;16.33;;;;;;;;;;5053789;28;20013;-86
2021/11/21 02:03:42;;;;;;;36.67;15.37;;;;;;;;;;5052350;28;20047;-86
2021/11/21 02:06:07;;;;;;;36.97;13.77;;;;;;;;;;5046140;28;20029;-87
2021/11/21 02:08:32;;;;;;;38.53;13.43;;;;;;;;;;5046067;28;20028;-87
2021/11/21 02:10:59;;;;;;;38.57;14.37;;;;;;;;;;5052293;28;20380;-87
2021/11/21 02:13:24;;;;;;;40.40;14.93;;;;;;;;;;5052441;28;20021;-87
2021/11/21 02:15:50;;;;;;;39.83;15.40;;;;;;;;;;5051634;28;20128;-87
2021/11/21 02:18:15;;;;;;;37.22;13.90;;;;;;;;;;5052457;28;20024;-87
2021/11/21 02:20:40;;;;;;;38.67;15.00;;;;;;;;;;5053371;28;20150;-86
2021/11/21 02:23:06;;;;;;;39.53;15.13;;;;;;;;;;5052321;28;20020;-87
2021/11/21 02:25:32;;;;;;;41.70;14.87;;;;;;;;;;5052176;28;20025;-86
2021/11/21 02:27:57;;;;;;;34.33;13.73;;;;;;;;;;5038840;28;20025;-86
2021/11/21 02:30:22;;;;;;;41.93;14.87;;;;;;;;;;5052187;28;20036;-87
2021/11/21 02:32:48;;;;;;;41.13;15.20;;;;;;;;;;5053301;28;20349;-87
2021/11/21 02:35:14;;;;;;;35.57;13.80;;;;;;;;;;5052066;28;20108;-87
2021/11/21 02:37:40;;;;;;;36.37;14.70;;;;;;;;;;5037020;28;20017;-86
2021/11/21 02:40:06;;;;;;;39.30;14.40;;;;;;;;;;5052054;28;20009;-87
2021/11/21 02:42:34;;;;;;;35.73;14.70;;;;;;;;;;5052025;28;20017;-87
2021/11/21 02:45:00;;;;;;;33.57;12.87;;;;;;;;;;5040272;28;20086;-86
2021/11/21 02:47:31;;;;;;;36.40;14.37;;;;;;;;;;5053308;28;20468;-87
2021/11/21 02:49:57;;;;;;;35.35;12.90;;;;;;;;;;5051903;28;20021;-87
2021/11/21 02:52:22;;;;;;;34.10;13.53;;;;;;;;;;5051971;28;20036;-86
2021/11/21 02:54:49;;;;;;;35.80;12.67;;;;;;;;;;5053085;28;20059;-87
2021/11/21 02:57:14;;;;;;;34.03;14.17;;;;;;;;;;5051762;28;20481;-87
2021/11/21 02:59:39;;;;;;;32.50;13.80;;;;;;;;;;5051964;28;20028;-87
2021/11/21 03:02:04;;;;;;;29.90;11.77;;;;;;;;;;5053103;28;20103;-87
2021/11/21 03:04:29;;;;;;;27.40;10.93;;;;;;;;;;5051890;28;20031;-87
2021/11/21 03:06:55;;;;;;;34.03;13.33;;;;;;;;;;5051690;28;20032;-87
2021/11/21 03:09:21;;;;;;;33.60;13.63;;;;;;;;;;5051828;28;20017;-87
2021/11/21 03:11:47;;;;;;;28.97;11.63;;;;;;;;;;5052067;28;20025;-87
2021/11/21 03:14:12;;;;;;;28.80;11.00;;;;;;;;;;5040928;28;20104;-87
2021/11/21 03:16:38;;;;;;;25.93;10.70;;;;;;;;;;5047767;28;20037;-87
2021/11/21 03:19:03;;;;;;;31.17;12.17;;;;;;;;;;5047703;28;20056;-87
2021/11/21 03:21:28;;;;;;;31.63;12.63;;;;;;;;;;5052978;28;20508;-87
2021/11/21 03:23:53;;;;;;;31.90;12.20;;;;;;;;;;5051627;28;20013;-87
2021/11/21 03:26:20;;;;;;;29.27;11.23;;;;;;;;;;5035291;28;20063;-87
2021/11/21 03:28:45;;;;;;;27.53;11.80;;;;;;;;;;5031475;28;20017;-87
2021/11/21 03:31:10;;;;;;;26.23;11.93;;;;;;;;;;5031573;28;20037;-87
2021/11/21 03:33:35;;;;;;;29.13;12.33;;;;;;;;;;5031654;28;20029;-87
2021/11/21 03:36:01;;;;;;;25.70;10.70;;;;;;;;;;5031525;28;20381;-87
2021/11/21 03:38:26;;;;;;;27.33;10.50;;;;;;;;;;5031277;28;20016;-87
2021/11/21 03:40:52;;;;;;;27.67;11.60;;;;;;;;;;5031665;28;20052;-87
2021/11/21 03:43:17;;;;;;;27.97;10.73;;;;;;;;;;5031353;28;20032;-87
2021/11/21 03:45:42;;;;;;;24.10;10.17;;;;;;;;;;5032703;28;20100;-86
2021/11/21 03:48:07;;;;;;;26.33;10.50;;;;;;;;;;5031292;28;20120;-86
2021/11/21 03:50:33;;;;;;;25.70;10.93;;;;;;;;;;5035531;28;20022;-87
2021/11/21 03:52:58;;;;;;;25.20;10.43;;;;;;;;;;5036312;28;20075;-87
2021/11/21 03:55:23;;;;;;;28.87;10.93;;;;;;;;;;5034768;28;20029;-87
2021/11/21 03:57:49;;;;;;;23.77;10.10;;;;;;;;;;5036353;28;20017;-86
2021/11/21 04:00:16;;;;;;;28.37;11.50;;;;;;;;;;5034746;28;20484;-87
2021/11/21 04:02:41;;;;;;;29.23;11.70;;;;;;;;;;5034889;28;20017;-87
2021/11/21 04:05:08;;;;;;;24.23;10.10;;;;;;;;;;5034943;28;20025;-87
2021/11/21 04:07:34;;;;;;;27.50;11.27;;;;;;;;;;5034561;28;20029;-85
2021/11/21 04:10:00;;;;;;;32.33;11.30;;;;;;;;;;5036354;28;20522;-87
2021/11/21 04:12:25;;;;;;;30.03;11.17;;;;;;;;;;5034493;28;20021;-87
2021/11/21 04:14:50;;;;;;;25.40;11.63;;;;;;;;;;5035789;28;20053;-86
2021/11/21 04:17:15;;;;;;;30.37;11.33;;;;;;;;;;5034521;28;20024;-87
2021/11/21 04:19:41;;;;;;;28.13;11.80;;;;;;;;;;5034649;28;20013;-87
2021/11/21 04:22:06;;;;;;;24.83;10.57;;;;;;;;;;5034447;28;20492;-87
2021/11/21 04:24:33;;;;;;;27.27;10.93;;;;;;;;;;5034407;28;20086;-87
2021/11/21 04:26:58;;;;;;;24.63;9.27;;;;;;;;;;5034510;28;20021;-87
2021/11/21 04:29:23;;;;;;;26.50;10.63;;;;;;;;;;5035448;28;20469;-87
2021/11/21 04:31:50;;;;;;;27.97;11.37;;;;;;;;;;5034220;28;20465;-87
2021/11/21 04:34:16;;;;;;;27.90;10.93;;;;;;;;;;5033612;28;20025;-87
2021/11/21 04:36:41;;;;;;;28.43;10.07;;;;;;;;;;5034207;28;20025;-87
2021/11/21 04:39:06;;;;;;;29.37;11.07;;;;;;;;;;5034103;28;20048;-87
2021/11/21 04:41:32;;;;;;;28.80;11.27;;;;;;;;;;5034205;28;20032;-86
2021/11/21 04:43:57;;;;;;;27.23;11.07;;;;;;;;;;5034082;28;20021;-87
2021/11/21 04:46:23;;;;;;;33.90;11.23;;;;;;;;;;5033867;28;20362;-87
2021/11/21 04:48:49;;;;;;;28.00;11.60;;;;;;;;;;5034116;28;20018;-87
2021/11/21 04:51:14;;;;;;;24.17;10.23;;;;;;;;;;5035154;28;20152;-87
2021/11/21 04:53:39;;;;;;;25.43;10.47;;;;;;;;;;5033990;28;20556;-87
2021/11/21 04:56:05;;;;;;;26.73;9.80;;;;;;;;;;5033772;28;20389;-87
2021/11/21 04:58:30;;;;;;;23.63;11.07;;;;;;;;;;5067012;28;20029;-87
2021/11/21 05:00:56;;;;;;;24.27;10.23;;;;;;;;;;5033054;28;20032;-87
2021/11/21 05:03:21;;;;;;;28.43;10.07;;;;;;;;;;5033637;28;20044;-87
2021/11/21 05:05:46;;;;;;;29.63;11.30;;;;;;;;;;5033726;28;20028;-87
2021/11/21 05:08:11;;;;;;;26.60;10.97;;;;;;;;;;5033464;28;20021;-87
2021/11/21 05:10:36;;;;;;;28.33;11.60;;;;;;;;;;5033591;28;20484;-87
2021/11/21 05:13:02;;;;;;;27.43;9.87;;;;;;;;;;5033816;28;20054;-87
2021/11/21 05:15:27;;;;;;;31.23;11.97;;;;;;;;;;5034700;28;20480;-87
2021/11/21 05:17:53;;;;;;;32.67;11.10;;;;;;;;;;5039857;28;20017;-87
2021/11/21 05:20:19;;;;;;;30.33;11.43;;;;;;;;;;5034446;28;20044;-86
2021/11/21 05:22:45;;;;;;;28.33;12.23;;;;;;;;;;5034640;28;20014;-86
2021/11/21 05:25:11;;;;;;;27.60;11.47;;;;;;;;;;5033354;28;20017;-86
2021/11/21 05:27:36;;;;;;;36.47;12.80;;;;;;;;;;5033133;28;20017;-87
2021/11/21 05:30:05;;;;;;;32.70;11.80;;;;;;;;;;5033191;28;20053;-87
2021/11/21 05:32:30;;;;;;;27.30;11.40;;;;;;;;;;5032980;28;20021;-87
2021/11/21 05:34:56;;;;;;;33.27;12.40;;;;;;;;;;5032942;28;20426;-87
2021/11/21 05:37:21;;;;;;;36.40;12.07;;;;;;;;;;5033079;28;20196;-86
2021/11/21 05:39:46;;;;;;;33.47;12.77;;;;;;;;;;5032983;28;20381;-87
2021/11/21 05:42:11;;;;;;;37.87;12.30;;;;;;;;;;5033160;28;20029;-87
2021/11/21 05:44:37;;;;;;;31.37;12.27;;;;;;;;;;5032877;28;20029;-87
2021/11/21 05:47:03;;;;;;;29.67;11.63;;;;;;;;;;5032852;28;20571;-86
2021/11/21 05:49:28;;;;;;;33.17;11.77;;;;;;;;;;5032866;28;20029;-87
2021/11/21 05:51:54;;;;;;;31.37;12.97;;;;;;;;;;5032633;28;20075;-87
2021/11/21 05:54:19;;;;;;;32.07;11.57;;;;;;;;;;5033926;28;20024;-87
2021/11/21 05:56:44;;;;;;;29.97;14.30;;;;;;;;;;5032470;28;20070;-86
2021/11/21 05:59:09;;;;;;;31.47;12.37;;;;;;;;;;5032521;28;20025;-86
2021/11/21 06:01:35;;;;;;;25.50;11.00;;;;;;;;;;5032551;28;20021;-87
2021/11/21 06:04:00;;;;;;;30.23;11.80;;;;;;;;;;5032690;28;20021;-87
2021/11/21 06:06:25;;;;;;;34.60;11.57;;;;;;;;;;5032499;28;20029;-87
2021/11/21 06:08:50;;;;;;;29.80;11.80;;;;;;;;;;5033078;28;20071;-87
2021/11/21 06:11:16;;;;;;;29.67;11.63;;;;;;;;;;5031750;28;20075;-87
2021/11/21 06:13:41;;;;;;;27.27;10.37;;;;;;;;;;5031610;28;20049;-87
2021/11/21 06:16:07;;;;;;;24.60;10.17;;;;;;;;;;5032129;28;20116;-87
2021/11/21 06:18:32;;;;;;;28.13;10.23;;;;;;;;;;5031777;28;20431;-87
2021/11/21 06:20:58;;;;;;;29.70;10.83;;;;;;;;;;5033103;28;20028;-87
2021/11/21 06:23:23;;;;;;;32.07;11.67;;;;;;;;;;5032055;28;20034;-87
2021/11/21 06:25:48;;;;;;;31.73;11.33;;;;;;;;;;5031690;28;20029;-87
2021/11/21 06:28:13;;;;;;;30.33;11.07;;;;;;;;;;5031637;28;20384;-87
2021/11/21 06:30:39;;;;;;;28.07;10.13;;;;;;;;;;5031966;28;20025;-87
2021/11/21 06:33:05;;;;;;;26.60;9.63;;;;;;;;;;5032563;28;20026;-87
2021/11/21 06:35:30;;;;;;;27.53;11.20;;;;;;;;;;5064959;28;20022;-87
2021/11/21 06:37:56;;;;;;;24.70;11.27;;;;;;;;;;5031942;28;20022;-87
2021/11/21 06:40:21;;;;;;;29.43;12.60;;;;;;;;;;5032129;28;20028;-87
2021/11/21 06:42:46;;;;;;;31.87;13.07;;;;;;;;;;5031960;28;20021;-86
2021/11/21 06:45:12;;;;;;;31.33;13.03;;;;;;;;;;5032287;28;20511;-87
2021/11/21 06:47:38;;;;;;;28.63;10.70;;;;;;;;;;5032035;28;20033;-87
2021/11/21 06:50:04;;;;;;;29.50;11.50;;;;;;;;;;5031695;28;20068;-87
2021/11/21 06:52:31;;;;;;;27.87;10.73;;;;;;;;;;5032022;28;20021;-88
2021/11/21 06:54:56;;;;;;;27.37;10.77;;;;;;;;;;5031818;28;20021;-87
2021/11/21 06:57:21;;;;;;;33.73;12.50;;;;;;;;;;5033348;28;20386;-87
2021/11/21 06:59:47;;;;;;;28.53;10.23;;;;;;;;;;5031784;28;20025;-87
2021/11/21 07:02:12;;;;;;;25.87;10.57;;;;;;;;;;5031924;28;20017;-87
2021/11/21 07:04:38;;;;;;;29.47;11.27;;;;;;;;;;5032020;28;20389;-87
2021/11/21 07:07:06;;;;;;;30.43;10.23;;;;;;;;;;5031727;28;20064;-87
2021/11/21 07:09:31;;;;;;;28.50;10.37;;;;;;;;;;5031745;28;20044;-87
2021/11/21 07:11:56;;;;;;;30.93;10.73;;;;;;;;;;5031807;28;20021;-87
2021/11/21 07:14:22;;;;;;;26.35;10.25;;;;;;;;;;5031885;28;20017;-87
2021/11/21 07:16:49;;;;;;;24.40;9.43;;;;;;;;;;5032912;28;20527;-87
2021/11/21 07:19:15;;;;;;;27.70;9.73;;;;;;;;;;5031934;28;20046;-87
2021/11/21 07:21:41;;;;;;;25.95;8.90;;;;;;;;;;5060820;28;20025;-87
2021/11/21 07:24:06;;;;;;;21.60;8.48;;;;;;;;;;5065832;28;20019;-87
2021/11/21 07:26:32;;;;;;;22.70;8.38;;;;;;;;;;5068968;28;20397;-87
2021/11/21 07:28:57;;;;;;;22.45;8.60;;;;;;;;;;5035368;28;20065;-87
2021/11/21 07:31:22;;;;;;;20.85;7.90;;;;;;;;;;5068863;28;20036;-87
2021/11/21 07:33:48;;;;;;;22.80;9.20;;;;;;;;;;5068562;28;20026;-86
2021/11/21 07:36:13;;;;;;;20.83;8.35;;;;;;;;;;5068715;28;20030;-87
2021/11/21 07:38:39;;;;;;;18.42;7.53;;;;;;;;;;5035490;28;20362;-87
2021/11/21 07:41:04;;;;;;;17.98;7.65;;;;;;;;;;5036512;28;20026;-87
2021/11/21 07:43:30;;;;;;;18.10;7.70;;;;;;;;;;5068629;28;20530;-87
2021/11/21 07:45:58;;;;;;;18.55;6.88;;;;;;;;;;5068260;28;20537;-87
2021/11/21 07:48:23;;;;;;;17.33;6.90;;;;;;;;;;5035081;28;20037;-87
2021/11/21 07:50:49;;;;;;;18.67;7.63;;;;;;;;;;5068627;28;20029;-87
2021/11/21 07:53:14;;;;;;;15.98;7.13;;;;;;;;;;5068334;28;20025;-87
2021/11/21 07:55:39;;;;;;;20.20;7.72;;;;;;;;;;5068350;28;20025;-87
2021/11/21 07:58:04;;;;;;;18.02;7.65;;;;;;;;;;5034892;28;20063;-87
2021/11/21 08:00:30;;;;;;;20.98;7.47;;;;;;;;;;5068182;28;20021;-86
2021/11/21 08:02:57;;;;;;;23.02;8.73;;;;;;;;;;5068251;28;20013;-87
2021/11/21 08:05:23;;;;;;;24.85;8.52;;;;;;;;;;5036121;28;20013;-86
2021/11/21 08:07:48;;;;;;;26.52;9.82;;;;;;;;;;5068227;28;20029;-87
2021/11/21 08:10:13;;;;;;;24.65;8.73;;;;;;;;;;5034799;28;20018;-87
2021/11/21 08:12:39;;;;;;;23.10;8.63;;;;;;;;;;5067932;28;20017;-87
2021/11/21 08:15:04;;;;;;;22.87;8.17;;;;;;;;;;5067231;28;20125;-87
2021/11/21 08:17:30;;;;;;;23.10;9.02;;;;;;;;;;5067798;28;20100;-87
2021/11/21 08:19:55;;;;;;;22.17;8.73;;;;;;;;;;5068060;28;20021;-87
2021/11/21 08:22:20;;;;;;;18.13;7.20;;;;;;;;;;5034548;28;20388;-87
2021/11/21 08:24:45;;;;;;;21.43;7.77;;;;;;;;;;5035499;28;20388;-87
2021/11/21 08:27:12;;;;;;;22.63;7.53;;;;;;;;;;5067844;28;20071;-87
2021/11/21 08:29:37;;;;;;;22.25;7.47;;;;;;;;;;5035804;28;20079;-87
2021/11/21 08:32:03;;;;;;;18.63;7.80;;;;;;;;;;5067221;28;20022;-87
2021/11/21 08:34:29;;;;;;;20.75;7.82;;;;;;;;;;5034206;28;20020;-87
2021/11/21 08:36:54;;;;;;;20.17;7.68;;;;;;;;;;5066648;28;20010;-87
2021/11/21 08:39:22;;;;;;;20.00;7.67;;;;;;;;;;5035450;28;20037;-87
2021/11/21 08:41:49;;;;;;;18.58;7.50;;;;;;;;;;5067767;28;20021;-87
2021/11/21 08:44:14;;;;;;;21.15;7.47;;;;;;;;;;5035498;28;20029;-87
2021/11/21 08:46:39;;;;;;;20.00;8.02;;;;;;;;;;5033955;28;20017;-87
2021/11/21 08:49:04;;;;;;;22.27;7.90;;;;;;;;;;5067753;28;20018;-87
2021/11/21 08:51:29;;;;;;;18.45;8.07;;;;;;;;;;5067158;28;20464;-87
2021/11/21 08:53:55;;;;;;;18.67;7.53;;;;;;;;;;5067030;28;20029;-87
2021/11/21 08:56:21;;;;;;;17.70;7.60;;;;;;;;;;5067002;28;20033;-87
2021/11/21 08:58:46;;;;;;;20.45;7.70;;;;;;;;;;5067265;28;20023;-87
2021/11/21 09:01:12;;;;;;;19.92;7.80;;;;;;;;;;5035100;28;20017;-87
2021/11/21 09:03:38;;;;;;;18.00;8.07;;;;;;;;;;5066718;28;20017;-88
2021/11/21 09:06:03;;;;;;;17.92;7.88;;;;;;;;;;5032990;28;20025;-87
2021/11/21 09:08:29;;;;;;;21.27;8.50;;;;;;;;;;5034866;28;20091;-87
2021/11/21 09:10:55;;;;;;;17.50;7.95;;;;;;;;;;5034983;28;20025;-87
2021/11/21 09:13:20;;;;;;;25.38;8.60;;;;;;;;;;5065627;28;20040;-86
2021/11/21 09:15:46;;;;;;;22.70;8.55;;;;;;;;;;5066572;28;20025;-87
2021/11/21 09:18:11;;;;;;;19.40;7.93;;;;;;;;;;5066516;28;20108;-87
2021/11/21 09:20:37;;;;;;;19.67;7.78;;;;;;;;;;5066739;28;20047;-87
2021/11/21 09:23:04;;;;;;;24.92;8.38;;;;;;;;;;5034381;28;20024;-87
2021/11/21 09:25:29;;;;;;;19.70;8.30;;;;;;;;;;5034119;28;20060;-87
2021/11/21 09:27:55;;;;;;;21.45;8.55;;;;;;;;;;5066276;28;20021;-87
2021/11/21 09:30:22;;;;;;;20.58;7.95;;;;;;;;;;5066108;28;20068;-87
2021/11/21 09:32:47;;;;;;;19.25;8.05;;;;;;;;;;5033244;28;20049;-87
2021/11/21 09:35:13;;;;;;;19.35;8.40;;;;;;;;;;5065906;28;20106;-87
2021/11/21 09:37:38;;;;;;;17.73;8.18;;;;;;;;;;5066195;28;20025;-86
2021/11/21 09:40:04;;;;;;;21.10;9.20;;;;;;;;;;5034175;28;20485;-87
2021/11/21 09:42:29;;;;;;;26.80;9.77;;;;;;;;;;5032868;28;20033;-87
2021/11/21 09:44:55;;;;;;;16.58;6.65;;;;;;;;;;5034254;28;20389;-88
2021/11/21 09:47:20;;;;;;;12.80;5.50;;;;;;;;;;5065860;28;20049;-87
2021/11/21 09:49:45;;;;;;;16.42;5.03;;;;;;;;;;5066011;28;20021;-87
2021/11/21 09:52:15;;;;;;;10.05;3.53;;;;;;;;;;5031729;28;20033;-87
2021/11/21 09:54:40;;;;;;;7.10;3.13;;;;;;;;;;5032404;28;20072;-87
2021/11/21 09:57:06;;;;;;;7.65;2.78;;;;;;;;;;5065829;28;20021;-87
2021/11/21 09:59:50;;;;;;;9.73;2.42;;;;;;;;;;5032844;28;20101;-87
2021/11/21 10:02:38;;;;;;;9.77;1.80;;;;;;;;;;5049874;28;20032;-88
2021/11/21 10:05:06;;;;;;;7.63;1.98;;;;;;;;;;5026906;28;20426;-88
2021/11/21 10:07:34;;;;;;;6.28;2.20;;;;;;;;;;5062035;28;20033;-87
2021/11/21 10:10:00;;;;;;;7.28;1.83;;;;;;;;;;5033410;28;20045;-88
2021/11/21 10:12:32;;;;;;;6.38;1.63;;;;;;;;;;5032106;28;20107;-86
2021/11/21 10:15:03;;;;;;;14.63;2.20;;;;;;;;;;5032207;28;20516;-87
2021/11/21 10:17:29;;;;;;;9.40;2.40;;;;;;;;;;5029597;28;20049;-87
2021/11/21 10:20:06;;;;;;;5.15;1.73;;;;;;;;;;5065654;28;20024;-87
2021/11/21 10:22:50;;;;;;;7.10;2.00;;;;;;;;;;5065514;28;20017;-87
2021/11/21 10:25:36;;;;;;;5.63;1.63;;;;;;;;;;5048776;28;20049;-86
2021/11/21 10:28:06;;;;;;;6.05;1.80;;;;;;;;;;5032518;28;20052;-87
2021/11/21 10:30:32;;;;;;;7.50;1.80;;;;;;;;;;5065740;28;20381;-87
2021/11/21 10:33:04;;;;;;;9.88;1.52;;;;;;;;;;5065701;28;20018;-87
2021/11/21 10:35:29;;;;;;;4.53;1.75;;;;;;;;;;5065277;28;20021;-87
2021/11/21 10:37:56;;;;;;;8.20;1.38;;;;;;;;;;5031732;28;20022;-87
2021/11/21 10:40:22;;;;;;;7.82;1.40;;;;;;;;;;5048689;28;20385;-89
2021/11/21 10:42:50;;;;;;;5.78;1.20;;;;;;;;;;5032539;28;20022;-89
2021/11/21 10:45:22;;;;;;;3.38;1.45;;;;;;;;;;5032509;28;20025;-89
2021/11/21 10:47:48;;;;;;;;;;;;;;;;;;5065489;28;20401;-89
2021/11/21 10:50:28;;;;;;;10.60;1.80;;;;;;;;;;5033903;28;19912;-89
2021/11/21 10:52:53;;;;;;;11.13;1.80;;;;;;;;;;5032784;28;20040;-89
2021/11/21 10:55:19;;;;;;;7.25;1.60;;;;;;;;;;5032422;28;20100;-89
2021/11/21 10:57:45;;;;;;;8.63;1.63;;;;;;;;;;5023158;28;20029;-90
2021/11/21 11:00:17;;;;;;;7.45;1.60;;;;;;;;;;5032822;28;20021;-90
2021/11/21 11:02:43;;;;;;;9.52;2.03;;;;;;;;;;5070065;28;20018;-90
2021/11/21 11:05:16;;;;;;;8.90;1.80;;;;;;;;;;5036537;28;20125;-89
2021/11/21 11:07:47;;;;;;;9.60;1.75;;;;;;;;;;5037645;28;20385;-90
2021/11/21 11:10:23;;;;;;;6.13;1.85;;;;;;;;;;5053028;28;20033;-89
2021/11/21 11:12:53;;;;;;;5.82;1.70;;;;;;;;;;5036671;28;20543;-89
2021/11/21 11:15:19;;;;;;;8.27;1.95;;;;;;;;;;5069308;28;20032;-88
2021/11/21 11:17:44;;;;;;;10.80;2.05;;;;;;;;;;5069114;28;20044;-86
2021/11/21 11:20:11;;;;;;;14.80;2.92;;;;;;;;;;5035318;28;20017;-86
2021/11/21 11:22:37;;;;;;;16.90;2.75;;;;;;;;;;5036637;28;20022;-86
2021/11/21 11:25:05;;;;;;;10.15;2.58;;;;;;;;;;5035622;28;20025;-87
2021/11/21 11:27:45;;;;;;;6.32;2.30;;;;;;;;;;5036110;28;20029;-86
2021/11/21 11:30:11;;;;;;;12.95;2.50;;;;;;;;;;5045000;28;20027;-88
2021/11/21 11:32:40;;;;;;;12.02;2.53;;;;;;;;;;5035319;28;20468;-89
2021/11/21 11:35:25;;;;;;;11.23;2.78;;;;;;;;;;5035160;28;20063;-89
2021/11/21 11:37:52;;;;;;;11.82;2.65;;;;;;;;;;5068333;28;20124;-89
2021/11/21 11:40:32;;;;;;;13.73;2.33;;;;;;;;;;5068475;28;20024;-88
2021/11/21 11:42:59;;;;;;;12.55;2.42;;;;;;;;;;5051578;28;20013;-88
2021/11/21 11:45:42;;;;;;;14.65;2.33;;;;;;;;;;5035091;28;20021;-89
2021/11/21 11:48:26;;;;;;;18.50;2.55;;;;;;;;;;5035000;28;20544;-87
2021/11/21 11:50:52;;;;;;;8.35;2.75;;;;;;;;;;5035159;28;20032;-88
2021/11/21 11:53:33;;;;;;;15.15;3.08;;;;;;;;;;5068342;28;20030;-89
2021/11/21 11:56:19;;;;;;;11.02;2.40;;;;;;;;;;5034819;28;20167;-89
2021/11/21 11:58:48;;;;;;;14.00;2.17;;;;;;;;;;5068458;28;20057;-89
2021/11/21 12:01:33;;;;;;;14.80;2.20;;;;;;;;;;5034784;28;20508;-89
2021/11/21 12:03:59;;;;;;;6.95;1.52;;;;;;;;;;5067866;28;20017;-89
2021/11/21 12:06:37;;;;;;;6.22;1.60;;;;;;;;;;5035995;28;20022;-89
2021/11/21 12:09:21;;;;;;;7.57;1.33;;;;;;;;;;5021543;28;20025;-89
2021/11/21 12:12:01;;;;;;;9.07;1.77;;;;;;;;;;5050736;28;20082;-88
2021/11/21 12:14:28;;;;;;;9.70;1.48;;;;;;;;;;5034498;28;20101;-89
2021/11/21 12:17:17;;;;;;;4.72;1.10;;;;;;;;;;5034939;28;20022;-89
2021/11/21 12:19:45;;;;;;;9.38;1.33;;;;;;;;;;5034555;28;20025;-89
2021/11/21 12:22:40;;;;;;;6.80;1.42;;;;;;;;;;5033735;28;20043;-89
2021/11/21 12:25:06;;;;;;;7.40;1.25;;;;;;;;;;5018049;28;20040;-89
2021/11/21 12:27:39;;;;;;;8.32;1.95;;;;;;;;;;5067764;28;20380;-88
2021/11/21 12:30:11;;;;;;;7.55;1.50;;;;;;;;;;5035682;28;20033;-89
2021/11/21 12:32:46;;;;;;;9.68;1.67;;;;;;;;;;5050916;28;20026;-88
2021/11/21 12:35:38;;;;;;;15.77;1.58;;;;;;;;;;5033765;28;20036;-89
2021/11/21 12:38:06;;;;;;;9.88;2.42;;;;;;;;;;5032022;28;20025;-88
2021/11/21 12:40:35;;;;;;;11.73;2.22;;;;;;;;;;5035167;28;20354;-87
2021/11/21 12:43:09;;;;;;;8.88;1.73;;;;;;;;;;5033234;28;20389;-87
2021/11/21 12:45:36;;;;;;;9.43;1.80;;;;;;;;;;5066714;28;20029;-86
2021/11/21 12:48:03;;;;;;;13.98;2.22;;;;;;;;;;5066684;28;20030;-87
2021/11/21 12:50:30;;;;;;;5.38;1.30;;;;;;;;;;5066881;28;20473;-88
2021/11/21 12:53:01;;;;;;;5.22;1.30;;;;;;;;;;5067011;28;20026;-86
2021/11/21 12:55:27;;;;;;;12.13;2.10;;;;;;;;;;5066479;28;20032;-88
2021/11/21 12:57:54;;;;;;;17.10;1.50;;;;;;;;;;5066732;28;20501;-88
2021/11/21 13:00:23;;;;;;;9.43;2.25;;;;;;;;;;5033228;28;20481;-88
2021/11/21 13:03:02;;;;;;;6.85;1.42;;;;;;;;;;5061837;28;20029;-88
2021/11/21 13:05:27;;;;;;;10.70;1.60;;;;;;;;;;5065584;28;20017;-88
2021/11/21 13:07:53;;;;;;;8.52;1.30;;;;;;;;;;5033349;28;20358;-87
2021/11/21 13:10:19;;;;;;;8.27;1.35;;;;;;;;;;5033161;28;20797;-88
2021/11/21 13:12:46;;;;;;;5.80;1.13;;;;;;;;;;5034680;28;20097;-89
2021/11/21 13:15:13;;;;;;;10.18;1.52;;;;;;;;;;5065950;28;20029;-87
2021/11/21 13:17:39;;;;;;;10.55;1.67;;;;;;;;;;5066560;28;20495;-87
2021/11/21 13:20:18;;;;;;;13.25;1.77;;;;;;;;;;5033265;28;20049;-88
2021/11/21 13:22:46;;;;;;;9.75;1.60;;;;;;;;;;5065504;28;20017;-89
2021/11/21 13:25:25;;;;;;;6.70;1.23;;;;;;;;;;5049687;28;20067;-88
2021/11/21 13:27:50;;;;;;;18.48;2.28;;;;;;;;;;5020771;28;20432;-88
2021/11/21 13:30:18;;;;;;;9.95;1.50;;;;;;;;;;5033978;28;20072;-88
2021/11/21 13:32:43;;;;;;;13.82;1.75;;;;;;;;;;5032935;28;20064;-87
2021/11/21 13:35:19;;;;;;;12.30;1.42;;;;;;;;;;5065693;28;20022;-88
2021/11/21 13:37:45;;;;;;;8.88;1.20;;;;;;;;;;5044016;28;20017;-87
2021/11/21 13:40:12;;;;;;;4.05;1.33;;;;;;;;;;5032750;28;20120;-89
2021/11/21 13:42:37;;;;;;;6.18;2.00;;;;;;;;;;5065856;28;20041;-88
2021/11/21 13:45:02;;;;;;;13.23;2.05;;;;;;;;;;5032250;28;20032;-87
2021/11/21 13:47:30;;;;;;;14.90;1.70;;;;;;;;;;5062265;28;20034;-87
2021/11/21 13:49:58;;;;;;;12.82;1.60;;;;;;;;;;5036198;28;20021;-87
2021/11/21 13:52:25;;;;;;;12.30;1.27;;;;;;;;;;5065592;28;20017;-87
2021/11/21 13:55:11;;;;;;;12.50;1.52;;;;;;;;;;5039892;28;20426;-88
2021/11/21 13:57:40;;;;;;;8.85;1.58;;;;;;;;;;5031808;28;20369;-87
2021/11/21 14:00:15;;;;;;;9.25;1.50;;;;;;;;;;5032032;28;20028;-88
2021/11/21 14:02:44;;;;;;;9.15;1.75;;;;;;;;;;5065371;28;20039;-87
2021/11/21 14:05:14;;;;;;;9.18;1.35;;;;;;;;;;5031709;28;20025;-86
2021/11/21 14:07:56;;;;;;;12.70;1.83;;;;;;;;;;5061763;28;20061;-86
2021/11/21 14:10:28;;;;;;;7.07;1.30;;;;;;;;;;5065392;28;20524;-86
2021/11/21 14:13:15;;;;;;;12.98;1.48;;;;;;;;;;5064262;28;20116;-86
2021/11/21 14:15:40;;;;;;;10.38;1.58;;;;;;;;;;5029950;28;20017;-86
2021/11/21 14:18:06;;;;;;;8.55;1.58;;;;;;;;;;5063536;28;20013;-86
2021/11/21 14:20:51;;;;;;;9.57;1.13;;;;;;;;;;5063524;28;20096;-86
2021/11/21 14:23:19;;;;;;;6.40;1.48;;;;;;;;;;5031728;28;20017;-86
2021/11/21 14:25:45;;;;;;;16.27;1.60;;;;;;;;;;5062571;28;20025;-86
2021/11/21 14:28:14;;;;;;;6.20;1.35;;;;;;;;;;5065203;28;20044;-86